createdAt,value
2023-04-03T00:00:42.826Z,16.52
2023-04-03T00:03:09.796Z,16.50
2023-04-03T00:05:37.015Z,16.51
2023-04-03T00:08:04.224Z,16.53
2023-04-03T00:10:31.017Z,16.48
2023-04-03T00:12:57.860Z,16.49
2023-04-03T00:15:24.709Z,16.48
2023-04-03T00:17:51.662Z,16.50
2023-04-03T00:20:21.615Z,16.49
2023-04-03T00:22:48.534Z,16.51
2023-04-03T00:25:15.736Z,16.48
2023-04-03T00:27:42.654Z,16.48
2023-04-03T00:30:18.416Z,16.49
2023-04-03T00:32:45.280Z,16.46
2023-04-03T00:35:12.424Z,16.45
2023-04-03T00:37:39.406Z,16.45
2023-04-03T00:40:07.019Z,16.45
2023-04-03T00:42:33.858Z,16.44
2023-04-03T00:45:02.156Z,16.43
2023-04-03T00:47:29.995Z,16.44
2023-04-03T00:49:56.837Z,16.46
2023-04-03T00:52:26.682Z,16.43
2023-04-03T00:54:58.396Z,16.46
2023-04-03T00:57:25.357Z,16.43
2023-04-03T00:59:53.374Z,16.44
2023-04-03T01:02:20.188Z,16.43
2023-04-03T01:04:50.189Z,16.46
2023-04-03T01:07:18.658Z,16.42
2023-04-03T01:09:46.146Z,16.42
2023-04-03T01:12:17.598Z,16.45
2023-04-03T01:14:45.306Z,16.44
2023-04-03T01:17:22.391Z,16.43
2023-04-03T01:19:55.548Z,16.41
2023-04-03T01:22:31.141Z,16.45
2023-04-03T01:24:57.996Z,16.40
2023-04-03T01:27:24.835Z,16.39
2023-04-03T01:29:51.827Z,16.39
2023-04-03T01:32:18.658Z,16.37
2023-04-03T01:34:45.481Z,16.42
2023-04-03T01:37:12.265Z,16.40
2023-04-03T01:39:39.091Z,16.40
2023-04-03T01:42:06.912Z,16.38
2023-04-03T01:44:33.753Z,16.38
2023-04-03T01:47:00.546Z,16.37
2023-04-03T01:49:27.349Z,16.40
2023-04-03T01:51:54.183Z,16.36
2023-04-03T01:54:21.086Z,16.39
2023-04-03T01:56:47.871Z,16.38
2023-04-03T01:59:19.124Z,16.36
2023-04-03T02:01:46.546Z,16.37
2023-04-03T02:04:13.788Z,16.36
2023-04-03T02:06:41.007Z,16.36
2023-04-03T02:09:08.207Z,16.35
2023-04-03T02:11:35.020Z,16.34
2023-04-03T02:14:01.841Z,16.33
2023-04-03T02:16:30.099Z,16.32
2023-04-03T02:18:56.981Z,16.34
2023-04-03T02:21:26.157Z,16.35
2023-04-03T02:23:52.969Z,16.30
2023-04-03T02:26:19.780Z,16.31
2023-04-03T02:28:47.073Z,16.28
2023-04-03T02:31:14.438Z,16.32
2023-04-03T02:33:41.481Z,16.31
2023-04-03T02:36:09.036Z,16.31
2023-04-03T02:38:36.593Z,16.30
2023-04-03T02:41:05.010Z,16.29
2023-04-03T02:43:31.876Z,16.29
2023-04-03T02:45:58.773Z,16.28
2023-04-03T02:48:25.961Z,16.27
2023-04-03T02:50:52.910Z,16.28
2023-04-03T02:53:20.275Z,16.29
2023-04-03T02:55:47.502Z,16.27
2023-04-03T02:58:14.311Z,16.30
2023-04-03T03:00:41.465Z,16.27
2023-04-03T03:03:08.416Z,16.25
2023-04-03T03:05:35.355Z,16.26
2023-04-03T03:08:02.154Z,16.26
2023-04-03T03:10:28.992Z,16.25
2023-04-03T03:12:55.821Z,16.21
2023-04-03T03:15:22.630Z,16.24
2023-04-03T03:17:49.546Z,16.24
2023-04-03T03:20:16.805Z,16.25
2023-04-03T03:22:43.659Z,16.26
2023-04-03T03:25:10.708Z,16.24
2023-04-03T03:27:37.592Z,16.22
2023-04-03T03:30:05.001Z,16.19
2023-04-03T03:32:31.863Z,16.18
2023-04-03T03:34:58.673Z,16.17
2023-04-03T03:37:25.757Z,16.17
2023-04-03T03:39:52.605Z,16.14
2023-04-03T03:42:19.518Z,16.19
2023-04-03T03:44:46.652Z,16.19
2023-04-03T03:47:13.512Z,16.19
2023-04-03T03:49:40.347Z,16.18
2023-04-03T03:52:07.201Z,16.16
2023-04-03T03:54:34.013Z,16.18
2023-04-03T03:57:00.831Z,16.17
2023-04-03T03:59:27.738Z,16.14
2023-04-03T04:01:54.573Z,16.12
2023-04-03T04:04:21.770Z,16.12
2023-04-03T04:06:48.714Z,16.13
2023-04-03T04:09:15.530Z,16.07
2023-04-03T04:11:42.491Z,16.11
2023-04-03T04:14:11.647Z,16.11
2023-04-03T04:16:38.552Z,16.10
2023-04-03T04:19:07.603Z,16.10
2023-04-03T04:21:38.715Z,16.10
2023-04-03T04:24:05.711Z,16.09
2023-04-03T04:26:32.714Z,16.11
2023-04-03T04:28:59.611Z,16.09
2023-04-03T04:31:26.704Z,16.11
2023-04-03T04:33:53.790Z,16.10
2023-04-03T04:36:21.107Z,16.03
2023-04-03T04:38:48.069Z,16.06
2023-04-03T04:41:14.965Z,16.08
2023-04-03T04:43:42.357Z,16.05
2023-04-03T04:46:13.462Z,16.08
2023-04-03T04:48:40.324Z,16.05
2023-04-03T04:51:07.146Z,16.07
2023-04-03T04:53:34.319Z,16.05
2023-04-03T04:56:01.147Z,16.03
2023-04-03T04:58:27.958Z,16.04
2023-04-03T05:01:04.879Z,16.04
2023-04-03T05:03:31.700Z,16.03
2023-04-03T05:05:58.690Z,16.00
2023-04-03T05:08:25.538Z,16.00
2023-04-03T05:10:54.234Z,16.03
2023-04-03T05:13:22.412Z,16.03
2023-04-03T05:15:49.296Z,16.02
2023-04-03T05:18:16.368Z,15.99
2023-04-03T05:20:44.697Z,15.99
2023-04-03T05:23:12.605Z,15.99
2023-04-03T05:25:39.990Z,15.98
2023-04-03T05:28:07.024Z,16.01
2023-04-03T05:30:34.086Z,15.99
2023-04-03T05:33:01.191Z,16.01
2023-04-03T05:35:28.051Z,15.97
2023-04-03T05:37:55.840Z,15.97
2023-04-03T05:40:22.905Z,15.95
2023-04-03T05:42:49.759Z,15.98
2023-04-03T05:45:18.949Z,15.99
2023-04-03T05:47:46.084Z,15.98
2023-04-03T05:50:13.386Z,15.97
2023-04-03T05:52:44.301Z,15.99
2023-04-03T05:55:11.423Z,15.97
2023-04-03T05:57:38.303Z,15.97
2023-04-03T06:00:07.634Z,15.96
2023-04-03T06:02:34.563Z,15.95
2023-04-03T06:05:01.929Z,15.97
2023-04-03T06:07:29.779Z,15.97
2023-04-03T06:09:57.254Z,15.96
2023-04-03T06:12:24.204Z,15.95
2023-04-03T06:14:51.473Z,15.97
2023-04-03T06:17:19.461Z,15.94
2023-04-03T06:19:47.055Z,15.93
2023-04-03T06:22:14.283Z,15.95
2023-04-03T06:24:41.564Z,15.93
2023-04-03T06:27:08.684Z,15.93
2023-04-03T06:29:35.639Z,15.95
2023-04-03T06:32:02.517Z,15.94
2023-04-03T06:34:29.461Z,15.92
2023-04-03T06:36:56.547Z,15.92
2023-04-03T06:39:24.090Z,15.92
2023-04-03T06:41:52.162Z,15.93
2023-04-03T06:44:19.107Z,15.91
2023-04-03T06:46:47.728Z,15.93
2023-04-03T06:49:14.668Z,15.93
2023-04-03T06:51:41.569Z,15.92
2023-04-03T06:54:09.542Z,15.94
2023-04-03T06:56:36.436Z,15.95
2023-04-03T06:59:03.904Z,15.94
2023-04-03T07:01:32.194Z,15.91
2023-04-03T07:03:59.300Z,15.90
2023-04-03T07:06:28.315Z,15.93
2023-04-03T07:08:58.169Z,15.94
2023-04-03T07:11:25.443Z,15.92
2023-04-03T07:13:52.465Z,15.92
2023-04-03T07:16:19.657Z,15.93
2023-04-03T07:18:47.299Z,15.94
2023-04-03T07:21:14.448Z,15.93
2023-04-03T07:23:41.411Z,15.93
2023-04-03T07:26:09.462Z,15.91
2023-04-03T07:28:38.003Z,15.93
2023-04-03T07:31:07.568Z,15.92
2023-04-03T07:33:34.840Z,15.93
2023-04-03T07:36:05.562Z,15.92
2023-04-03T07:38:32.735Z,15.92
2023-04-03T07:40:59.734Z,15.92
2023-04-03T07:43:27.889Z,15.95
2023-04-03T07:45:55.637Z,15.93
2023-04-03T07:48:23.945Z,15.93
2023-04-03T07:50:51.149Z,15.92
2023-04-03T07:53:18.556Z,15.93
2023-04-03T07:55:49.228Z,15.93
2023-04-03T07:58:18.451Z,15.93
2023-04-03T08:00:45.572Z,15.94
2023-04-03T08:03:12.938Z,15.95
2023-04-03T08:05:41.205Z,15.95
2023-04-03T08:08:12.538Z,15.96
2023-04-03T08:10:39.941Z,15.95
2023-04-03T08:13:07.570Z,15.92
2023-04-03T08:15:34.636Z,15.97
2023-04-03T08:18:02.249Z,15.97
2023-04-03T08:20:29.567Z,15.95
2023-04-03T08:22:56.588Z,15.96
2023-04-03T08:25:23.608Z,15.95
2023-04-03T08:27:50.628Z,15.95
2023-04-03T08:30:18.048Z,15.96
2023-04-03T08:32:45.739Z,15.95
2023-04-03T08:35:12.916Z,15.95
2023-04-03T08:37:40.319Z,15.96
2023-04-03T08:40:09.233Z,15.93
2023-04-03T08:42:48.871Z,15.97
2023-04-03T08:45:18.842Z,15.95
2023-04-03T08:47:52.143Z,15.96
2023-04-03T08:50:23.290Z,15.94
2023-04-03T08:52:52.925Z,15.93
2023-04-03T08:55:25.121Z,15.90
2023-04-03T08:57:55.852Z,15.94
2023-04-03T09:00:25.387Z,15.96
2023-04-03T09:02:55.737Z,15.97
2023-04-03T09:05:31.956Z,15.97
2023-04-03T09:08:09.116Z,15.98
2023-04-03T09:10:39.048Z,15.97
2023-04-03T09:13:09.818Z,15.98
2023-04-03T09:15:39.398Z,15.99
2023-04-03T09:18:07.204Z,16.01
2023-04-03T09:20:37.519Z,16.02
2023-04-03T09:23:14.161Z,16.03
2023-04-03T09:25:41.252Z,16.00
2023-04-03T09:28:11.319Z,16.01
2023-04-03T09:30:39.729Z,16.02
2023-04-03T09:33:08.490Z,16.01
2023-04-03T09:35:47.255Z,16.03
2023-04-03T09:38:15.650Z,16.04
2023-04-03T09:40:42.858Z,16.01
2023-04-03T09:43:19.070Z,16.06
2023-04-03T09:45:47.285Z,16.10
2023-04-03T09:48:16.231Z,16.11
2023-04-03T09:50:54.264Z,16.09
2023-04-03T09:53:34.076Z,16.08
2023-04-03T09:56:01.898Z,16.06
2023-04-03T09:58:42.624Z,16.07
2023-04-03T10:01:24.158Z,16.08
2023-04-03T10:04:04.521Z,16.13
2023-04-03T10:06:32.917Z,16.10
2023-04-03T10:09:02.371Z,16.10
2023-04-03T10:11:29.330Z,16.10
2023-04-03T10:13:58.017Z,16.13
2023-04-03T10:16:28.829Z,16.11
2023-04-03T10:19:05.377Z,16.09
2023-04-03T10:21:32.694Z,16.13
2023-04-03T10:23:59.848Z,16.08
2023-04-03T10:26:33.028Z,16.11
2023-04-03T10:29:09.753Z,16.08
2023-04-03T10:31:39.888Z,16.11
2023-04-03T10:34:12.024Z,16.12
2023-04-03T10:36:47.606Z,16.14
2023-04-03T10:39:26.362Z,16.13
2023-04-03T10:42:16.036Z,16.16
2023-04-03T10:44:53.931Z,16.16
2023-04-03T10:47:23.577Z,16.23
2023-04-03T10:50:00.055Z,16.20
2023-04-03T10:52:35.880Z,16.19
2023-04-03T10:55:13.103Z,16.20
2023-04-03T10:57:41.615Z,16.21
2023-04-03T11:00:19.689Z,16.24
2023-04-03T11:02:52.517Z,16.23
2023-04-03T11:05:28.260Z,16.19
2023-04-03T11:07:57.320Z,16.23
2023-04-03T11:10:31.507Z,16.24
2023-04-03T11:13:04.347Z,16.22
2023-04-03T11:15:34.604Z,16.25
2023-04-03T11:18:05.860Z,16.34
2023-04-03T11:20:35.634Z,16.34
2023-04-03T11:23:05.365Z,16.36
2023-04-03T11:25:34.307Z,16.42
2023-04-03T11:28:03.193Z,16.47
2023-04-03T11:30:33.278Z,16.51
2023-04-03T11:33:10.059Z,16.55
2023-04-03T11:35:38.269Z,16.61
2023-04-03T11:38:07.862Z,16.65
2023-04-03T11:40:36.510Z,16.67
2023-04-03T11:43:03.739Z,16.71
2023-04-03T11:45:36.148Z,16.74
2023-04-03T11:48:23.186Z,16.79
2023-04-03T11:50:51.728Z,16.83
2023-04-03T11:53:21.494Z,16.87
2023-04-03T11:55:49.716Z,16.90
2023-04-03T11:58:19.448Z,16.92
2023-04-03T12:00:47.941Z,16.90
2023-04-03T12:03:28.175Z,16.95
2023-04-03T12:05:56.359Z,16.92
2023-04-03T12:08:33.174Z,16.94
2023-04-03T12:11:09.820Z,16.97
2023-04-03T12:13:37.944Z,17.02
2023-04-03T12:16:05.902Z,17.01
2023-04-03T12:18:34.021Z,17.05
2023-04-03T12:21:01.644Z,17.07
2023-04-03T12:23:28.894Z,17.11
2023-04-03T12:26:04.505Z,17.09
2023-04-03T12:28:32.673Z,17.09
2023-04-03T12:31:03.298Z,17.15
2023-04-03T12:33:31.026Z,17.17
2023-04-03T12:36:06.311Z,17.15
2023-04-03T12:38:35.663Z,17.14
2023-04-03T12:41:11.727Z,17.16
2023-04-03T12:43:47.949Z,17.13
2023-04-03T12:46:24.800Z,17.13
2023-04-03T12:48:55.022Z,17.12
2023-04-03T12:51:31.784Z,17.13
2023-04-03T12:54:03.471Z,17.13
2023-04-03T12:56:33.370Z,17.13
2023-04-03T12:59:09.745Z,17.14
2023-04-03T13:01:37.119Z,17.13
2023-04-03T13:04:05.589Z,17.16
2023-04-03T13:06:39.617Z,17.16
2023-04-03T13:09:07.774Z,17.17
2023-04-03T13:11:37.843Z,17.21
2023-04-03T13:14:07.254Z,17.18
2023-04-03T13:16:35.133Z,17.19
2023-04-03T13:19:02.283Z,17.20
2023-04-03T13:21:30.367Z,17.19
2023-04-03T13:24:13.883Z,17.21
2023-04-03T13:26:43.187Z,17.19
2023-04-03T13:29:24.242Z,17.21
2023-04-03T13:31:58.057Z,17.21
2023-04-03T13:34:27.319Z,17.21
2023-04-03T13:36:55.472Z,17.19
2023-04-03T13:39:24.726Z,17.18
2023-04-03T13:41:52.864Z,17.19
2023-04-03T13:44:23.003Z,17.21
2023-04-03T13:46:52.099Z,17.21
2023-04-03T13:49:20.501Z,17.21
2023-04-03T13:51:54.160Z,17.20
2023-04-03T13:54:33.648Z,17.19
2023-04-03T13:57:01.767Z,17.19
2023-04-03T13:59:30.502Z,17.18
2023-04-03T14:02:04.689Z,17.18
2023-04-03T14:04:33.624Z,17.18
2023-04-03T14:07:00.835Z,17.17
2023-04-03T14:09:28.698Z,17.19
2023-04-03T14:11:57.549Z,17.18
2023-04-03T14:14:27.884Z,17.18
2023-04-03T14:16:57.036Z,17.18
2023-04-03T14:19:25.813Z,17.18
2023-04-03T14:21:53.965Z,17.17
2023-04-03T14:24:21.080Z,17.17
2023-04-03T14:26:48.985Z,17.15
2023-04-03T14:29:16.119Z,17.20
2023-04-03T14:31:44.549Z,17.18
2023-04-03T14:34:12.902Z,17.18
2023-04-03T14:36:40.660Z,17.16
2023-04-03T14:39:08.182Z,17.13
2023-04-03T14:41:35.217Z,17.17
2023-04-03T14:44:02.515Z,17.18
2023-04-03T14:46:48.282Z,17.12
2023-04-03T14:49:21.952Z,17.12
2023-04-03T14:51:49.062Z,17.09
2023-04-03T14:54:17.606Z,17.11
2023-04-03T14:56:45.990Z,17.11
2023-04-03T14:59:14.146Z,17.09
2023-04-03T15:01:41.232Z,17.08
2023-04-03T15:04:18.116Z,17.10
2023-04-03T15:06:45.244Z,17.09
2023-04-03T15:09:20.313Z,17.07
2023-04-03T15:11:47.338Z,17.08
2023-04-03T15:14:16.740Z,17.05
2023-04-03T15:16:51.541Z,17.04
2023-04-03T15:19:18.519Z,17.04
2023-04-03T15:21:45.572Z,17.05
2023-04-03T15:24:12.988Z,17.04
2023-04-03T15:26:40.274Z,17.02
2023-04-03T15:29:07.430Z,17.05
2023-04-03T15:31:34.829Z,17.01
2023-04-03T15:34:01.908Z,17.04
2023-04-03T15:36:33.992Z,17.02
2023-04-03T15:39:01.851Z,17.03
2023-04-03T15:41:29.013Z,17.03
2023-04-03T15:43:55.956Z,17.03
2023-04-03T15:46:23.028Z,17.03
2023-04-03T15:48:51.045Z,17.06
2023-04-03T15:51:18.042Z,17.05
2023-04-03T15:53:45.256Z,17.05
2023-04-03T15:56:13.295Z,17.04
2023-04-03T15:58:40.342Z,17.05
2023-04-03T16:01:07.527Z,17.05
2023-04-03T16:03:34.944Z,17.03
2023-04-03T16:06:02.626Z,17.03
2023-04-03T16:08:29.660Z,17.01
2023-04-03T16:10:56.645Z,17.02
2023-04-03T16:13:23.613Z,17.02
2023-04-03T16:15:50.921Z,17.03
2023-04-03T16:18:19.833Z,17.04
2023-04-03T16:20:46.844Z,17.00
2023-04-03T16:23:14.084Z,17.01
2023-04-03T16:25:41.263Z,17.00
2023-04-03T16:28:08.418Z,17.03
2023-04-03T16:30:35.706Z,17.02
2023-04-03T16:33:02.945Z,16.99
2023-04-03T16:35:31.177Z,16.97
2023-04-03T16:37:58.143Z,16.99
2023-04-03T16:40:25.236Z,16.98
2023-04-03T16:42:52.361Z,16.99
2023-04-03T16:45:19.417Z,16.99
2023-04-03T16:47:46.479Z,16.98
2023-04-03T16:50:13.530Z,16.97
2023-04-03T16:52:40.822Z,16.95
2023-04-03T16:55:08.095Z,16.96
2023-04-03T16:57:35.068Z,16.96
2023-04-03T17:00:02.093Z,16.97
2023-04-03T17:02:29.267Z,16.94
2023-04-03T17:04:56.486Z,16.95
2023-04-03T17:07:24.290Z,16.95
2023-04-03T17:09:54.875Z,16.96
2023-04-03T17:12:22.762Z,16.94
2023-04-03T17:14:50.022Z,16.91
2023-04-03T17:17:20.149Z,16.94
2023-04-03T17:19:47.255Z,16.94
2023-04-03T17:22:14.249Z,16.94
2023-04-03T17:24:41.402Z,16.96
2023-04-03T17:27:08.377Z,16.96
2023-04-03T17:29:37.667Z,16.97
2023-04-03T17:32:05.048Z,16.98
2023-04-03T17:34:32.152Z,17.01
2023-04-03T17:36:59.093Z,16.99
2023-04-03T17:39:26.112Z,16.99
2023-04-03T17:41:55.371Z,16.99
2023-04-03T17:44:22.606Z,17.01
2023-04-03T17:46:49.619Z,16.98
2023-04-03T17:49:19.155Z,16.99
2023-04-03T17:51:46.122Z,16.97
2023-04-03T17:54:14.965Z,16.98
2023-04-03T17:56:48.106Z,16.96
2023-04-03T17:59:16.592Z,16.95
2023-04-03T18:01:44.837Z,16.96
2023-04-03T18:04:12.355Z,16.98
2023-04-03T18:06:39.560Z,16.95
2023-04-03T18:09:09.523Z,16.92
2023-04-03T18:11:36.748Z,16.90
2023-04-03T18:14:08.073Z,16.88
2023-04-03T18:16:35.516Z,16.89
2023-04-03T18:19:21.356Z,16.86
2023-04-03T18:21:49.924Z,16.87
2023-04-03T18:24:18.513Z,16.87
2023-04-03T18:26:47.181Z,16.85
2023-04-03T18:29:14.724Z,16.86
2023-04-03T18:31:44.362Z,16.85
2023-04-03T18:34:12.426Z,16.85
2023-04-03T18:36:39.428Z,16.84
2023-04-03T18:39:06.945Z,16.86
2023-04-03T18:41:35.805Z,16.86
2023-04-03T18:44:04.183Z,16.84
2023-04-03T18:46:32.565Z,16.83
2023-04-03T18:48:59.786Z,16.84
2023-04-03T18:51:26.932Z,16.80
2023-04-03T18:53:53.958Z,16.82
2023-04-03T18:56:22.455Z,16.83
2023-04-03T18:58:49.782Z,16.80
2023-04-03T19:01:17.164Z,16.82
2023-04-03T19:03:44.359Z,16.82
2023-04-03T19:06:11.566Z,16.78
2023-04-03T19:08:41.131Z,16.78
2023-04-03T19:11:08.225Z,16.80
2023-04-03T19:13:35.445Z,16.80
2023-04-03T19:16:02.967Z,16.80
2023-04-03T19:18:30.291Z,16.79
2023-04-03T19:20:57.878Z,16.79
2023-04-03T19:23:25.145Z,16.75
2023-04-03T19:26:00.314Z,16.75
2023-04-03T19:28:27.489Z,16.77
2023-04-03T19:30:54.779Z,16.76
2023-04-03T19:33:21.874Z,16.71
2023-04-03T19:35:48.821Z,16.75
2023-04-03T19:38:15.898Z,16.75
2023-04-03T19:40:44.291Z,16.72
2023-04-03T19:43:13.475Z,16.76
2023-04-03T19:45:41.462Z,16.76
2023-04-03T19:48:09.005Z,16.76
2023-04-03T19:50:36.381Z,16.76
2023-04-03T19:53:03.730Z,16.73
2023-04-03T19:55:32.053Z,16.70
2023-04-03T19:58:00.214Z,16.73
2023-04-03T20:00:28.916Z,16.70
2023-04-03T20:02:56.019Z,16.75
2023-04-03T20:05:23.832Z,16.73
2023-04-03T20:07:50.962Z,16.77
2023-04-03T20:10:18.238Z,16.74
2023-04-03T20:12:45.440Z,16.72
2023-04-03T20:15:12.658Z,16.73
2023-04-03T20:17:41.202Z,16.74
2023-04-03T20:20:08.982Z,16.71
2023-04-03T20:22:37.254Z,16.70
2023-04-03T20:25:06.658Z,16.73
2023-04-03T20:27:35.125Z,16.73
2023-04-03T20:30:04.423Z,16.71
2023-04-03T20:32:32.316Z,16.70
2023-04-03T20:35:04.456Z,16.69
2023-04-03T20:37:32.045Z,16.68
2023-04-03T20:39:59.092Z,16.68
2023-04-03T20:42:26.636Z,16.66
2023-04-03T20:44:53.739Z,16.65
2023-04-03T20:47:20.760Z,16.66
2023-04-03T20:49:47.922Z,16.65
2023-04-03T20:52:15.028Z,16.65
2023-04-03T20:54:42.171Z,16.65
2023-04-03T20:57:09.092Z,16.63
2023-04-03T20:59:37.335Z,16.64
2023-04-03T21:02:04.299Z,16.63
2023-04-03T21:04:32.608Z,16.61
2023-04-03T21:07:11.264Z,16.58
2023-04-03T21:09:48.577Z,16.63
2023-04-03T21:12:24.750Z,16.61
2023-04-03T21:15:02.206Z,16.61
2023-04-03T21:17:29.217Z,16.61
2023-04-03T21:19:56.197Z,16.63
2023-04-03T21:22:23.138Z,16.62
2023-04-03T21:24:50.082Z,16.62
2023-04-03T21:27:17.087Z,16.58
2023-04-03T21:29:44.121Z,16.58
2023-04-03T21:32:11.248Z,16.60
2023-04-03T21:34:38.199Z,16.57
2023-04-03T21:37:06.733Z,16.58
2023-04-03T21:39:33.961Z,16.57
2023-04-03T21:42:01.027Z,16.55
2023-04-03T21:44:28.792Z,16.54
2023-04-03T21:47:00.199Z,16.56
2023-04-03T21:49:27.595Z,16.54
2023-04-03T21:51:54.781Z,16.55
2023-04-03T21:54:21.757Z,16.57
2023-04-03T21:56:49.821Z,16.52
2023-04-03T21:59:16.867Z,16.53
2023-04-03T22:01:44.021Z,16.54
2023-04-03T22:04:11.407Z,16.52
2023-04-03T22:06:38.464Z,16.52
2023-04-03T22:09:05.555Z,16.50
2023-04-03T22:11:33.057Z,16.48
2023-04-03T22:14:00.598Z,16.51
2023-04-03T22:16:27.895Z,16.48
2023-04-03T22:18:55.383Z,16.51
2023-04-03T22:21:22.562Z,16.48
2023-04-03T22:23:49.633Z,16.49
2023-04-03T22:26:16.937Z,16.48
2023-04-03T22:28:45.664Z,16.46
2023-04-03T22:31:14.660Z,16.44
2023-04-03T22:33:42.161Z,16.41
2023-04-03T22:36:10.149Z,16.42
2023-04-03T22:38:37.983Z,16.41
2023-04-03T22:41:06.239Z,16.42
2023-04-03T22:43:33.978Z,16.40
2023-04-03T22:46:01.695Z,16.41
2023-04-03T22:48:28.919Z,16.39
2023-04-03T22:50:56.128Z,16.40
2023-04-03T22:53:23.612Z,16.34
2023-04-03T22:55:59.759Z,16.36
2023-04-03T22:58:27.022Z,16.36
2023-04-03T23:00:54.564Z,16.34
2023-04-03T23:03:23.606Z,16.36
2023-04-03T23:05:53.680Z,16.35
2023-04-03T23:08:20.638Z,16.36
2023-04-03T23:10:48.015Z,16.36
2023-04-03T23:13:15.054Z,16.31
2023-04-03T23:15:42.099Z,16.33
2023-04-03T23:18:09.138Z,16.33
2023-04-03T23:20:36.155Z,16.34
2023-04-03T23:23:04.485Z,16.33
2023-04-03T23:25:31.439Z,16.31
2023-04-03T23:27:58.544Z,16.31
2023-04-03T23:30:25.752Z,16.33
2023-04-03T23:32:52.643Z,16.31
2023-04-03T23:35:19.586Z,16.30
2023-04-03T23:37:46.674Z,16.29
2023-04-03T23:40:13.625Z,16.26
2023-04-03T23:42:40.515Z,16.28
2023-04-03T23:45:08.031Z,16.28
2023-04-03T23:47:37.736Z,16.26
2023-04-03T23:50:04.874Z,16.24
2023-04-03T23:52:31.902Z,16.26
2023-04-03T23:54:59.086Z,16.24
2023-04-03T23:57:25.942Z,16.22
2023-04-03T23:59:52.863Z,16.23
